sensor_id;sensor_type;location;lat;lon;timestamp;temperature;humidity
22069;DHT22;13887;57.196;-2.100;2023-06-14T00:00:46;17.36;78.71
22069;DHT22;13887;57.196;-2.100;2023-06-14T00:03:15;17.36;78.69
22069;DHT22;13887;57.196;-2.100;2023-06-14T00:05:44;17.35;78.84
22069;DHT22;13887;57.196;-2.100;2023-06-14T00:08:13;17.33;78.89
22069;DHT22;13887;57.196;-2.100;2023-06-14T00:10:40;17.33;78.98
22069;DHT22;13887;57.196;-2.100;2023-06-14T00:13:11;17.33;79.01
22069;DHT22;13887;57.196;-2.100;2023-06-14T00:15:38;17.32;79.05
22069;DHT22;13887;57.196;-2.100;2023-06-14T00:18:05;17.30;79.11
22069;DHT22;13887;57.196;-2.100;2023-06-14T00:20:33;17.29;79.23
22069;DHT22;13887;57.196;-2.100;2023-06-14T00:23:00;17.28;79.34
22069;DHT22;13887;57.196;-2.100;2023-06-14T00:25:28;17.28;79.42
22069;DHT22;13887;57.196;-2.100;2023-06-14T00:27:57;17.25;79.47
22069;DHT22;13887;57.196;-2.100;2023-06-14T00:30:24;17.25;79.54
22069;DHT22;13887;57.196;-2.100;2023-06-14T00:32:51;17.24;79.62
22069;DHT22;13887;57.196;-2.100;2023-06-14T00:35:19;17.23;79.73
22069;DHT22;13887;57.196;-2.100;2023-06-14T00:37:46;17.22;79.77
22069;DHT22;13887;57.196;-2.100;2023-06-14T00:40:13;17.21;79.79
22069;DHT22;13887;57.196;-2.100;2023-06-14T00:42:40;17.22;79.86
22069;DHT22;13887;57.196;-2.100;2023-06-14T00:45:09;17.20;79.91
22069;DHT22;13887;57.196;-2.100;2023-06-14T00:47:38;17.20;79.91
22069;DHT22;13887;57.196;-2.100;2023-06-14T00:50:08;17.21;79.95
22069;DHT22;13887;57.196;-2.100;2023-06-14T00:52:36;17.20;79.85
22069;DHT22;13887;57.196;-2.100;2023-06-14T00:55:04;17.20;79.92
22069;DHT22;13887;57.196;-2.100;2023-06-14T00:57:31;17.18;80.08
22069;DHT22;13887;57.196;-2.100;2023-06-14T00:59:58;17.16;80.11
22069;DHT22;13887;57.196;-2.100;2023-06-14T01:02:25;17.18;80.02
22069;DHT22;13887;57.196;-2.100;2023-06-14T01:04:52;17.17;80.05
22069;DHT22;13887;57.196;-2.100;2023-06-14T01:15:38;17.18;79.48
22069;DHT22;13887;57.196;-2.100;2023-06-14T01:18:08;17.16;79.55
22069;DHT22;13887;57.196;-2.100;2023-06-14T01:20:46;17.14;79.40
22069;DHT22;13887;57.196;-2.100;2023-06-14T01:23:18;17.15;79.46
22069;DHT22;13887;57.196;-2.100;2023-06-14T01:25:45;17.14;79.47
22069;DHT22;13887;57.196;-2.100;2023-06-14T01:28:15;17.11;79.50
22069;DHT22;13887;57.196;-2.100;2023-06-14T01:30:49;17.10;79.55
22069;DHT22;13887;57.196;-2.100;2023-06-14T01:33:20;17.07;79.61
22069;DHT22;13887;57.196;-2.100;2023-06-14T01:35:50;17.06;79.75
22069;DHT22;13887;57.196;-2.100;2023-06-14T01:38:19;17.05;79.78
22069;DHT22;13887;57.196;-2.100;2023-06-14T01:40:47;17.05;79.62
22069;DHT22;13887;57.196;-2.100;2023-06-14T01:43:15;17.05;79.40
22069;DHT22;13887;57.196;-2.100;2023-06-14T01:45:42;17.04;79.44
22069;DHT22;13887;57.196;-2.100;2023-06-14T01:48:11;17.02;79.50
22069;DHT22;13887;57.196;-2.100;2023-06-14T01:50:39;17.00;79.53
22069;DHT22;13887;57.196;-2.100;2023-06-14T01:53:10;16.96;79.62
22069;DHT22;13887;57.196;-2.100;2023-06-14T01:55:37;16.96;79.60
22069;DHT22;13887;57.196;-2.100;2023-06-14T01:58:07;16.96;79.61
22069;DHT22;13887;57.196;-2.100;2023-06-14T02:00:34;16.94;79.61
22069;DHT22;13887;57.196;-2.100;2023-06-14T02:03:01;16.94;79.59
22069;DHT22;13887;57.196;-2.100;2023-06-14T02:05:31;16.92;79.54
22069;DHT22;13887;57.196;-2.100;2023-06-14T02:07:58;16.94;79.27
22069;DHT22;13887;57.196;-2.100;2023-06-14T02:10:25;16.93;79.15
22069;DHT22;13887;57.196;-2.100;2023-06-14T02:12:54;16.92;79.20
22069;DHT22;13887;57.196;-2.100;2023-06-14T02:15:21;16.91;79.14
22069;DHT22;13887;57.196;-2.100;2023-06-14T02:17:48;16.91;78.96
22069;DHT22;13887;57.196;-2.100;2023-06-14T02:20:19;16.93;78.80
22069;DHT22;13887;57.196;-2.100;2023-06-14T02:22:46;16.92;78.74
22069;DHT22;13887;57.196;-2.100;2023-06-14T02:25:12;16.89;78.93
22069;DHT22;13887;57.196;-2.100;2023-06-14T02:27:40;16.89;78.87
22069;DHT22;13887;57.196;-2.100;2023-06-14T02:30:09;16.86;78.97
22069;DHT22;13887;57.196;-2.100;2023-06-14T02:32:36;16.84;78.95
22069;DHT22;13887;57.196;-2.100;2023-06-14T02:35:04;16.80;79.03
22069;DHT22;13887;57.196;-2.100;2023-06-14T02:37:34;16.78;79.09
22069;DHT22;13887;57.196;-2.100;2023-06-14T02:40:01;16.77;79.14
22069;DHT22;13887;57.196;-2.100;2023-06-14T02:42:30;16.76;79.21
22069;DHT22;13887;57.196;-2.100;2023-06-14T02:44:57;16.77;79.08
22069;DHT22;13887;57.196;-2.100;2023-06-14T02:47:24;16.78;78.82
22069;DHT22;13887;57.196;-2.100;2023-06-14T02:49:51;16.80;78.69
22069;DHT22;13887;57.196;-2.100;2023-06-14T02:52:18;16.78;78.40
22069;DHT22;13887;57.196;-2.100;2023-06-14T02:54:45;16.78;78.46
22069;DHT22;13887;57.196;-2.100;2023-06-14T02:57:14;16.75;78.65
22069;DHT22;13887;57.196;-2.100;2023-06-14T02:59:42;16.72;78.80
22069;DHT22;13887;57.196;-2.100;2023-06-14T03:02:09;16.71;78.76
22069;DHT22;13887;57.196;-2.100;2023-06-14T03:04:36;16.70;78.85
22069;DHT22;13887;57.196;-2.100;2023-06-14T03:07:11;16.71;78.72
22069;DHT22;13887;57.196;-2.100;2023-06-14T03:09:41;16.69;78.72
22069;DHT22;13887;57.196;-2.100;2023-06-14T03:12:10;16.69;78.67
22069;DHT22;13887;57.196;-2.100;2023-06-14T03:14:38;16.70;78.35
22069;DHT22;13887;57.196;-2.100;2023-06-14T03:17:07;16.69;78.17
22069;DHT22;13887;57.196;-2.100;2023-06-14T03:19:38;16.69;78.22
22069;DHT22;13887;57.196;-2.100;2023-06-14T03:22:05;16.66;78.43
22069;DHT22;13887;57.196;-2.100;2023-06-14T03:24:36;16.66;78.55
22069;DHT22;13887;57.196;-2.100;2023-06-14T03:27:09;16.66;78.37
22069;DHT22;13887;57.196;-2.100;2023-06-14T03:29:40;16.66;78.34
22069;DHT22;13887;57.196;-2.100;2023-06-14T03:32:08;16.67;78.10
22069;DHT22;13887;57.196;-2.100;2023-06-14T03:34:37;16.66;78.15
22069;DHT22;13887;57.196;-2.100;2023-06-14T03:37:14;16.65;78.19
22069;DHT22;13887;57.196;-2.100;2023-06-14T03:39:41;16.63;78.42
22069;DHT22;13887;57.196;-2.100;2023-06-14T03:42:17;16.63;78.45
22069;DHT22;13887;57.196;-2.100;2023-06-14T03:44:46;16.63;78.11
22069;DHT22;13887;57.196;-2.100;2023-06-14T03:47:14;16.62;78.14
22069;DHT22;13887;57.196;-2.100;2023-06-14T03:49:42;16.61;78.10
22069;DHT22;13887;57.196;-2.100;2023-06-14T03:52:09;16.60;78.23
22069;DHT22;13887;57.196;-2.100;2023-06-14T03:54:38;16.59;78.34
22069;DHT22;13887;57.196;-2.100;2023-06-14T03:57:08;16.57;78.35
22069;DHT22;13887;57.196;-2.100;2023-06-14T03:59:36;16.56;78.43
22069;DHT22;13887;57.196;-2.100;2023-06-14T04:02:03;16.56;78.50
22069;DHT22;13887;57.196;-2.100;2023-06-14T04:04:32;16.52;78.59
22069;DHT22;13887;57.196;-2.100;2023-06-14T04:07:03;16.56;78.39
22069;DHT22;13887;57.196;-2.100;2023-06-14T04:09:31;16.56;78.50
22069;DHT22;13887;57.196;-2.100;2023-06-14T04:11:58;16.57;78.08
22069;DHT22;13887;57.196;-2.100;2023-06-14T04:14:25;16.57;78.10
22069;DHT22;13887;57.196;-2.100;2023-06-14T04:16:52;16.57;78.19
22069;DHT22;13887;57.196;-2.100;2023-06-14T04:19:20;16.57;78.25
22069;DHT22;13887;57.196;-2.100;2023-06-14T04:21:47;16.58;78.21
22069;DHT22;13887;57.196;-2.100;2023-06-14T04:24:15;16.59;78.12
22069;DHT22;13887;57.196;-2.100;2023-06-14T04:26:46;16.59;78.30
22069;DHT22;13887;57.196;-2.100;2023-06-14T04:29:16;16.59;78.29
22069;DHT22;13887;57.196;-2.100;2023-06-14T04:31:48;16.60;78.37
22069;DHT22;13887;57.196;-2.100;2023-06-14T04:34:16;16.60;78.21
22069;DHT22;13887;57.196;-2.100;2023-06-14T04:36:53;16.59;78.26
22069;DHT22;13887;57.196;-2.100;2023-06-14T04:39:27;16.59;78.17
22069;DHT22;13887;57.196;-2.100;2023-06-14T04:41:55;16.60;78.05
22069;DHT22;13887;57.196;-2.100;2023-06-14T04:44:24;16.60;78.31
22069;DHT22;13887;57.196;-2.100;2023-06-14T04:47:01;16.61;78.31
22069;DHT22;13887;57.196;-2.100;2023-06-14T04:49:28;16.64;78.30
22069;DHT22;13887;57.196;-2.100;2023-06-14T04:51:57;16.70;78.27
22069;DHT22;13887;57.196;-2.100;2023-06-14T04:54:30;16.76;78.04
22069;DHT22;13887;57.196;-2.100;2023-06-14T04:57:03;16.82;77.70
22069;DHT22;13887;57.196;-2.100;2023-06-14T04:59:30;16.85;77.54
22069;DHT22;13887;57.196;-2.100;2023-06-14T05:02:01;16.87;77.86
22069;DHT22;13887;57.196;-2.100;2023-06-14T05:04:28;16.91;77.75
22069;DHT22;13887;57.196;-2.100;2023-06-14T05:06:57;16.91;78.44
22069;DHT22;13887;57.196;-2.100;2023-06-14T05:09:24;16.92;79.01
22069;DHT22;13887;57.196;-2.100;2023-06-14T05:11:51;16.94;79.11
22069;DHT22;13887;57.196;-2.100;2023-06-14T05:14:19;16.96;78.91
22069;DHT22;13887;57.196;-2.100;2023-06-14T05:16:46;17.00;78.28
22069;DHT22;13887;57.196;-2.100;2023-06-14T05:19:15;17.03;78.14
22069;DHT22;13887;57.196;-2.100;2023-06-14T05:21:44;17.04;79.57
22069;DHT22;13887;57.196;-2.100;2023-06-14T05:24:11;17.06;79.17
22069;DHT22;13887;57.196;-2.100;2023-06-14T05:26:38;17.07;78.75
22069;DHT22;13887;57.196;-2.100;2023-06-14T05:29:05;17.06;78.39
22069;DHT22;13887;57.196;-2.100;2023-06-14T05:31:32;17.11;77.53
22069;DHT22;13887;57.196;-2.100;2023-06-14T05:33:59;17.13;77.31
22069;DHT22;13887;57.196;-2.100;2023-06-14T05:36:26;17.10;77.39
22069;DHT22;13887;57.196;-2.100;2023-06-14T05:38:54;17.05;77.63
22069;DHT22;13887;57.196;-2.100;2023-06-14T05:41:27;17.03;78.03
22069;DHT22;13887;57.196;-2.100;2023-06-14T05:43:56;17.00;78.21
22069;DHT22;13887;57.196;-2.100;2023-06-14T05:46:23;17.02;78.60
22069;DHT22;13887;57.196;-2.100;2023-06-14T05:48:53;16.99;78.01
22069;DHT22;13887;57.196;-2.100;2023-06-14T05:51:21;16.96;77.81
22069;DHT22;13887;57.196;-2.100;2023-06-14T05:53:48;16.94;77.90
22069;DHT22;13887;57.196;-2.100;2023-06-14T05:56:16;16.94;77.88
22069;DHT22;13887;57.196;-2.100;2023-06-14T05:58:45;16.93;78.08
22069;DHT22;13887;57.196;-2.100;2023-06-14T06:01:13;16.96;78.16
22069;DHT22;13887;57.196;-2.100;2023-06-14T06:03:41;16.93;77.69
22069;DHT22;13887;57.196;-2.100;2023-06-14T06:06:08;16.93;77.98
22069;DHT22;13887;57.196;-2.100;2023-06-14T06:08:35;16.94;77.90
22069;DHT22;13887;57.196;-2.100;2023-06-14T06:11:02;16.98;77.66
22069;DHT22;13887;57.196;-2.100;2023-06-14T06:13:29;16.95;77.34
22069;DHT22;13887;57.196;-2.100;2023-06-14T06:15:56;16.93;77.40
22069;DHT22;13887;57.196;-2.100;2023-06-14T06:18:23;16.98;77.24
22069;DHT22;13887;57.196;-2.100;2023-06-14T06:20:50;17.02;77.08
22069;DHT22;13887;57.196;-2.100;2023-06-14T06:23:18;17.01;77.34
22069;DHT22;13887;57.196;-2.100;2023-06-14T06:25:45;17.02;77.43
22069;DHT22;13887;57.196;-2.100;2023-06-14T06:28:12;17.04;77.95
22069;DHT22;13887;57.196;-2.100;2023-06-14T06:30:39;17.13;77.05
22069;DHT22;13887;57.196;-2.100;2023-06-14T06:33:06;17.14;76.82
22069;DHT22;13887;57.196;-2.100;2023-06-14T06:35:33;17.14;76.64
22069;DHT22;13887;57.196;-2.100;2023-06-14T06:38:01;17.16;76.68
22069;DHT22;13887;57.196;-2.100;2023-06-14T06:40:28;17.20;76.31
22069;DHT22;13887;57.196;-2.100;2023-06-14T06:42:55;17.19;76.28
22069;DHT22;13887;57.196;-2.100;2023-06-14T06:45:26;17.20;76.23
22069;DHT22;13887;57.196;-2.100;2023-06-14T06:47:53;17.19;76.21
22069;DHT22;13887;57.196;-2.100;2023-06-14T06:50:20;17.21;76.12
22069;DHT22;13887;57.196;-2.100;2023-06-14T06:52:50;17.18;76.10
22069;DHT22;13887;57.196;-2.100;2023-06-14T06:55:17;17.22;76.04
22069;DHT22;13887;57.196;-2.100;2023-06-14T06:57:45;17.21;75.84
22069;DHT22;13887;57.196;-2.100;2023-06-14T07:00:12;17.29;75.53
22069;DHT22;13887;57.196;-2.100;2023-06-14T07:02:40;17.28;75.60
22069;DHT22;13887;57.196;-2.100;2023-06-14T07:05:07;17.30;75.42
22069;DHT22;13887;57.196;-2.100;2023-06-14T07:07:35;17.68;75.38
22069;DHT22;13887;57.196;-2.100;2023-06-14T07:10:02;17.52;75.75
22069;DHT22;13887;57.196;-2.100;2023-06-14T07:12:31;17.45;76.03
22069;DHT22;13887;57.196;-2.100;2023-06-14T07:15:03;17.45;76.06
22069;DHT22;13887;57.196;-2.100;2023-06-14T07:17:31;17.40;76.06
22069;DHT22;13887;57.196;-2.100;2023-06-14T07:19:58;17.41;76.07
22069;DHT22;13887;57.196;-2.100;2023-06-14T07:22:25;17.40;76.05
22069;DHT22;13887;57.196;-2.100;2023-06-14T07:24:52;17.41;75.99
22069;DHT22;13887;57.196;-2.100;2023-06-14T07:27:19;17.43;75.98
22069;DHT22;13887;57.196;-2.100;2023-06-14T07:29:46;17.43;75.92
22069;DHT22;13887;57.196;-2.100;2023-06-14T07:32:13;17.45;75.86
22069;DHT22;13887;57.196;-2.100;2023-06-14T07:34:40;17.48;75.65
22069;DHT22;13887;57.196;-2.100;2023-06-14T07:37:07;17.46;75.41
22069;DHT22;13887;57.196;-2.100;2023-06-14T07:39:34;17.45;75.34
22069;DHT22;13887;57.196;-2.100;2023-06-14T07:42:01;17.47;75.18
22069;DHT22;13887;57.196;-2.100;2023-06-14T07:44:29;17.47;75.15
22069;DHT22;13887;57.196;-2.100;2023-06-14T07:46:57;17.47;75.22
22069;DHT22;13887;57.196;-2.100;2023-06-14T07:49:27;17.46;75.26
22069;DHT22;13887;57.196;-2.100;2023-06-14T07:51:55;17.45;75.36
22069;DHT22;13887;57.196;-2.100;2023-06-14T07:54:21;17.44;75.76
22069;DHT22;13887;57.196;-2.100;2023-06-14T07:56:53;17.43;75.76
22069;DHT22;13887;57.196;-2.100;2023-06-14T07:59:20;17.43;75.73
22069;DHT22;13887;57.196;-2.100;2023-06-14T08:01:47;17.44;75.84
22069;DHT22;13887;57.196;-2.100;2023-06-14T08:04:14;17.46;76.27
22069;DHT22;13887;57.196;-2.100;2023-06-14T08:06:42;17.47;76.17
22069;DHT22;13887;57.196;-2.100;2023-06-14T08:09:13;17.48;76.39
22069;DHT22;13887;57.196;-2.100;2023-06-14T08:11:40;17.49;76.29
22069;DHT22;13887;57.196;-2.100;2023-06-14T08:14:07;17.49;76.34
22069;DHT22;13887;57.196;-2.100;2023-06-14T08:16:34;17.50;76.25
22069;DHT22;13887;57.196;-2.100;2023-06-14T08:19:01;17.50;76.22
22069;DHT22;13887;57.196;-2.100;2023-06-14T08:21:28;17.53;76.15
22069;DHT22;13887;57.196;-2.100;2023-06-14T08:23:58;17.52;76.28
22069;DHT22;13887;57.196;-2.100;2023-06-14T08:26:25;17.53;76.19
22069;DHT22;13887;57.196;-2.100;2023-06-14T08:28:55;17.53;76.26
22069;DHT22;13887;57.196;-2.100;2023-06-14T08:31:23;17.53;76.65
22069;DHT22;13887;57.196;-2.100;2023-06-14T08:33:51;17.53;76.49
22069;DHT22;13887;57.196;-2.100;2023-06-14T08:36:18;17.53;76.41
22069;DHT22;13887;57.196;-2.100;2023-06-14T08:38:45;17.54;76.57
22069;DHT22;13887;57.196;-2.100;2023-06-14T08:41:25;17.54;76.76
22069;DHT22;13887;57.196;-2.100;2023-06-14T08:43:52;17.55;76.64
22069;DHT22;13887;57.196;-2.100;2023-06-14T08:46:19;17.58;76.78
22069;DHT22;13887;57.196;-2.100;2023-06-14T08:48:51;17.58;76.69
22069;DHT22;13887;57.196;-2.100;2023-06-14T08:51:19;17.58;76.73
22069;DHT22;13887;57.196;-2.100;2023-06-14T08:53:55;17.62;76.95
22069;DHT22;13887;57.196;-2.100;2023-06-14T08:56:26;17.62;77.13
22069;DHT22;13887;57.196;-2.100;2023-06-14T08:58:55;17.63;77.07
22069;DHT22;13887;57.196;-2.100;2023-06-14T09:01:23;17.64;77.03
22069;DHT22;13887;57.196;-2.100;2023-06-14T09:03:51;17.65;76.92
22069;DHT22;13887;57.196;-2.100;2023-06-14T09:06:19;17.69;76.78
22069;DHT22;13887;57.196;-2.100;2023-06-14T09:08:46;17.70;76.64
22069;DHT22;13887;57.196;-2.100;2023-06-14T09:11:18;17.70;76.60
22069;DHT22;13887;57.196;-2.100;2023-06-14T09:13:49;17.73;76.59
22069;DHT22;13887;57.196;-2.100;2023-06-14T09:16:16;17.75;76.55
22069;DHT22;13887;57.196;-2.100;2023-06-14T09:18:45;17.76;76.53
22069;DHT22;13887;57.196;-2.100;2023-06-14T09:21:16;17.79;76.49
22069;DHT22;13887;57.196;-2.100;2023-06-14T09:23:45;17.81;76.41
22069;DHT22;13887;57.196;-2.100;2023-06-14T09:28:47;17.87;76.18
22069;DHT22;13887;57.196;-2.100;2023-06-14T09:31:16;17.87;76.09
22069;DHT22;13887;57.196;-2.100;2023-06-14T09:33:44;17.90;76.04
22069;DHT22;13887;57.196;-2.100;2023-06-14T09:36:16;17.90;76.04
22069;DHT22;13887;57.196;-2.100;2023-06-14T09:38:56;17.89;76.02
22069;DHT22;13887;57.196;-2.100;2023-06-14T09:41:40;17.93;75.92
22069;DHT22;13887;57.196;-2.100;2023-06-14T09:44:09;17.94;75.89
22069;DHT22;13887;57.196;-2.100;2023-06-14T09:46:44;17.93;75.84
22069;DHT22;13887;57.196;-2.100;2023-06-14T09:49:12;17.96;75.78
22069;DHT22;13887;57.196;-2.100;2023-06-14T09:51:43;17.96;75.76
22069;DHT22;13887;57.196;-2.100;2023-06-14T09:54:22;17.97;75.70
22069;DHT22;13887;57.196;-2.100;2023-06-14T09:56:51;17.98;75.70
22069;DHT22;13887;57.196;-2.100;2023-06-14T09:59:25;17.99;75.70
22069;DHT22;13887;57.196;-2.100;2023-06-14T10:01:58;17.98;75.78
22069;DHT22;13887;57.196;-2.100;2023-06-14T10:04:29;18.02;75.69
22069;DHT22;13887;57.196;-2.100;2023-06-14T10:06:58;18.03;75.72
22069;DHT22;13887;57.196;-2.100;2023-06-14T10:09:28;18.04;75.74
22069;DHT22;13887;57.196;-2.100;2023-06-14T10:11:59;18.04;75.79
22069;DHT22;13887;57.196;-2.100;2023-06-14T10:14:26;18.06;75.77
22069;DHT22;13887;57.196;-2.100;2023-06-14T10:17:12;18.07;75.84
22069;DHT22;13887;57.196;-2.100;2023-06-14T10:19:48;18.08;75.76
22069;DHT22;13887;57.196;-2.100;2023-06-14T10:22:39;18.10;75.64
22069;DHT22;13887;57.196;-2.100;2023-06-14T10:25:12;18.12;75.50
22069;DHT22;13887;57.196;-2.100;2023-06-14T10:27:44;18.12;75.44
22069;DHT22;13887;57.196;-2.100;2023-06-14T10:30:14;18.14;75.34
22069;DHT22;13887;57.196;-2.100;2023-06-14T10:33:07;18.15;75.24
22069;DHT22;13887;57.196;-2.100;2023-06-14T10:35:34;18.15;75.25
22069;DHT22;13887;57.196;-2.100;2023-06-14T10:38:09;18.18;75.23
22069;DHT22;13887;57.196;-2.100;2023-06-14T10:40:36;18.19;75.12
22069;DHT22;13887;57.196;-2.100;2023-06-14T10:43:23;18.19;75.05
22069;DHT22;13887;57.196;-2.100;2023-06-14T10:46:13;18.19;75.03
22069;DHT22;13887;57.196;-2.100;2023-06-14T10:48:44;18.21;74.99
22069;DHT22;13887;57.196;-2.100;2023-06-14T10:51:18;18.21;74.96
22069;DHT22;13887;57.196;-2.100;2023-06-14T10:53:48;18.22;74.91
22069;DHT22;13887;57.196;-2.100;2023-06-14T10:56:32;18.23;74.83
22069;DHT22;13887;57.196;-2.100;2023-06-14T10:58:59;18.24;74.77
22069;DHT22;13887;57.196;-2.100;2023-06-14T11:01:36;18.27;74.65
22069;DHT22;13887;57.196;-2.100;2023-06-14T11:04:08;18.27;74.67
22069;DHT22;13887;57.196;-2.100;2023-06-14T11:06:50;18.28;74.71
22069;DHT22;13887;57.196;-2.100;2023-06-14T11:12:10;18.32;74.91
22069;DHT22;13887;57.196;-2.100;2023-06-14T11:14:39;18.34;74.83
22069;DHT22;13887;57.196;-2.100;2023-06-14T11:17:07;18.33;75.12
22069;DHT22;13887;57.196;-2.100;2023-06-14T11:19:34;18.33;75.09
22069;DHT22;13887;57.196;-2.100;2023-06-14T11:22:01;18.34;75.23
22069;DHT22;13887;57.196;-2.100;2023-06-14T11:24:28;18.34;75.38
22069;DHT22;13887;57.196;-2.100;2023-06-14T11:26:55;18.35;75.21
22069;DHT22;13887;57.196;-2.100;2023-06-14T11:29:23;18.35;75.21
22069;DHT22;13887;57.196;-2.100;2023-06-14T11:31:51;18.38;75.15
22069;DHT22;13887;57.196;-2.100;2023-06-14T11:34:18;18.38;75.17
22069;DHT22;13887;57.196;-2.100;2023-06-14T11:36:45;18.41;75.05
22069;DHT22;13887;57.196;-2.100;2023-06-14T11:39:14;18.43;74.83
22069;DHT22;13887;57.196;-2.100;2023-06-14T11:41:43;18.48;74.80
22069;DHT22;13887;57.196;-2.100;2023-06-14T11:44:11;18.51;74.78
22069;DHT22;13887;57.196;-2.100;2023-06-14T11:46:38;18.55;74.47
22069;DHT22;13887;57.196;-2.100;2023-06-14T11:49:07;18.58;74.25
22069;DHT22;13887;57.196;-2.100;2023-06-14T11:51:35;18.61;73.61
22069;DHT22;13887;57.196;-2.100;2023-06-14T11:54:03;18.63;73.90
22069;DHT22;13887;57.196;-2.100;2023-06-14T11:56:33;18.64;74.09
22069;DHT22;13887;57.196;-2.100;2023-06-14T11:59:02;18.67;73.95
22069;DHT22;13887;57.196;-2.100;2023-06-14T12:01:30;18.71;74.19
22069;DHT22;13887;57.196;-2.100;2023-06-14T12:03:59;18.73;73.41
22069;DHT22;13887;57.196;-2.100;2023-06-14T12:06:29;18.77;73.37
22069;DHT22;13887;57.196;-2.100;2023-06-14T12:09:02;18.81;72.72
22069;DHT22;13887;57.196;-2.100;2023-06-14T12:11:35;18.84;73.19
22069;DHT22;13887;57.196;-2.100;2023-06-14T12:14:04;18.89;72.90
22069;DHT22;13887;57.196;-2.100;2023-06-14T12:16:33;18.93;73.18
22069;DHT22;13887;57.196;-2.100;2023-06-14T12:19:08;18.93;73.19
22069;DHT22;13887;57.196;-2.100;2023-06-14T12:21:38;18.92;72.25
22069;DHT22;13887;57.196;-2.100;2023-06-14T12:24:08;18.99;70.83
22069;DHT22;13887;57.196;-2.100;2023-06-14T12:26:38;19.05;70.61
22069;DHT22;13887;57.196;-2.100;2023-06-14T12:29:06;19.10;70.20
22069;DHT22;13887;57.196;-2.100;2023-06-14T12:31:34;19.15;71.06
22069;DHT22;13887;57.196;-2.100;2023-06-14T12:34:01;19.17;71.10
22069;DHT22;13887;57.196;-2.100;2023-06-14T12:36:28;19.20;69.97
22069;DHT22;13887;57.196;-2.100;2023-06-14T12:38:56;19.22;71.05
22069;DHT22;13887;57.196;-2.100;2023-06-14T12:41:23;19.20;69.98
22069;DHT22;13887;57.196;-2.100;2023-06-14T12:43:51;19.18;70.27
22069;DHT22;13887;57.196;-2.100;2023-06-14T12:46:18;19.16;70.71
22069;DHT22;13887;57.196;-2.100;2023-06-14T12:48:45;19.15;69.81
22069;DHT22;13887;57.196;-2.100;2023-06-14T12:51:12;19.16;70.14
22069;DHT22;13887;57.196;-2.100;2023-06-14T12:53:39;19.20;69.82
22069;DHT22;13887;57.196;-2.100;2023-06-14T12:56:06;19.20;70.50
22069;DHT22;13887;57.196;-2.100;2023-06-14T12:58:33;19.25;70.76
22069;DHT22;13887;57.196;-2.100;2023-06-14T13:01:00;19.27;69.22
22069;DHT22;13887;57.196;-2.100;2023-06-14T13:03:27;19.27;68.52
22069;DHT22;13887;57.196;-2.100;2023-06-14T13:05:54;19.32;68.64
22069;DHT22;13887;57.196;-2.100;2023-06-14T13:08:21;19.32;67.55
22069;DHT22;13887;57.196;-2.100;2023-06-14T13:10:51;19.36;68.81
22069;DHT22;13887;57.196;-2.100;2023-06-14T13:13:18;19.36;69.11
22069;DHT22;13887;57.196;-2.100;2023-06-14T13:15:45;19.37;68.91
22069;DHT22;13887;57.196;-2.100;2023-06-14T13:18:12;19.38;69.45
22069;DHT22;13887;57.196;-2.100;2023-06-14T13:20:40;19.41;66.40
22069;DHT22;13887;57.196;-2.100;2023-06-14T13:23:07;19.44;67.94
22069;DHT22;13887;57.196;-2.100;2023-06-14T13:25:34;19.44;68.07
22069;DHT22;13887;57.196;-2.100;2023-06-14T13:28:04;19.47;67.68
22069;DHT22;13887;57.196;-2.100;2023-06-14T13:30:32;19.52;68.73
22069;DHT22;13887;57.196;-2.100;2023-06-14T13:32:59;19.53;67.58
22069;DHT22;13887;57.196;-2.100;2023-06-14T13:35:26;19.56;66.58
22069;DHT22;13887;57.196;-2.100;2023-06-14T13:37:53;19.62;64.00
22069;DHT22;13887;57.196;-2.100;2023-06-14T13:40:20;19.71;64.61
22069;DHT22;13887;57.196;-2.100;2023-06-14T13:42:47;19.71;65.20
22069;DHT22;13887;57.196;-2.100;2023-06-14T13:45:15;19.73;66.48
22069;DHT22;13887;57.196;-2.100;2023-06-14T13:47:42;19.77;65.86
22069;DHT22;13887;57.196;-2.100;2023-06-14T13:50:09;19.80;66.05
22069;DHT22;13887;57.196;-2.100;2023-06-14T13:52:36;19.76;67.89
22069;DHT22;13887;57.196;-2.100;2023-06-14T13:55:04;19.76;67.28
22069;DHT22;13887;57.196;-2.100;2023-06-14T13:57:32;19.82;66.92
22069;DHT22;13887;57.196;-2.100;2023-06-14T13:59:59;19.85;61.97
22069;DHT22;13887;57.196;-2.100;2023-06-14T14:02:38;19.95;63.96
22069;DHT22;13887;57.196;-2.100;2023-06-14T14:05:07;19.97;62.75
22069;DHT22;13887;57.196;-2.100;2023-06-14T14:07:34;19.96;62.63
22069;DHT22;13887;57.196;-2.100;2023-06-14T14:10:03;19.97;62.66
22069;DHT22;13887;57.196;-2.100;2023-06-14T14:12:30;19.94;60.69
22069;DHT22;13887;57.196;-2.100;2023-06-14T14:14:58;19.96;62.12
22069;DHT22;13887;57.196;-2.100;2023-06-14T14:17:24;19.96;59.79
22069;DHT22;13887;57.196;-2.100;2023-06-14T14:19:52;19.99;64.92
22069;DHT22;13887;57.196;-2.100;2023-06-14T14:22:19;19.97;61.96
22069;DHT22;13887;57.196;-2.100;2023-06-14T14:24:46;20.02;65.31
22069;DHT22;13887;57.196;-2.100;2023-06-14T14:27:13;20.03;65.38
22069;DHT22;13887;57.196;-2.100;2023-06-14T14:29:40;20.03;62.21
22069;DHT22;13887;57.196;-2.100;2023-06-14T14:32:07;20.02;61.42
22069;DHT22;13887;57.196;-2.100;2023-06-14T14:34:37;20.02;64.57
22069;DHT22;13887;57.196;-2.100;2023-06-14T14:37:04;19.99;64.61
22069;DHT22;13887;57.196;-2.100;2023-06-14T14:39:31;19.97;59.61
22069;DHT22;13887;57.196;-2.100;2023-06-14T14:41:58;20.05;62.75
22069;DHT22;13887;57.196;-2.100;2023-06-14T14:44:25;20.04;58.38
22069;DHT22;13887;57.196;-2.100;2023-06-14T14:46:52;20.11;59.09
22069;DHT22;13887;57.196;-2.100;2023-06-14T14:49:19;20.15;61.93
22069;DHT22;13887;57.196;-2.100;2023-06-14T14:51:47;20.15;63.86
22069;DHT22;13887;57.196;-2.100;2023-06-14T14:54:14;20.13;63.83
22069;DHT22;13887;57.196;-2.100;2023-06-14T14:56:41;20.15;63.63
22069;DHT22;13887;57.196;-2.100;2023-06-14T14:59:07;20.16;64.72
22069;DHT22;13887;57.196;-2.100;2023-06-14T15:01:34;20.16;64.78
22069;DHT22;13887;57.196;-2.100;2023-06-14T15:04:02;20.21;65.49
22069;DHT22;13887;57.196;-2.100;2023-06-14T15:06:29;20.24;65.64
22069;DHT22;13887;57.196;-2.100;2023-06-14T15:08:56;20.20;63.00
22069;DHT22;13887;57.196;-2.100;2023-06-14T15:11:23;20.20;61.92
22069;DHT22;13887;57.196;-2.100;2023-06-14T15:13:50;20.25;64.21
22069;DHT22;13887;57.196;-2.100;2023-06-14T15:16:17;20.29;61.61
22069;DHT22;13887;57.196;-2.100;2023-06-14T15:18:44;20.31;63.11
22069;DHT22;13887;57.196;-2.100;2023-06-14T15:21:12;20.29;63.88
22069;DHT22;13887;57.196;-2.100;2023-06-14T15:23:39;20.28;63.62
22069;DHT22;13887;57.196;-2.100;2023-06-14T15:26:06;20.31;63.23
22069;DHT22;13887;57.196;-2.100;2023-06-14T15:28:33;20.35;62.53
22069;DHT22;13887;57.196;-2.100;2023-06-14T15:31:00;20.34;59.66
22069;DHT22;13887;57.196;-2.100;2023-06-14T15:33:27;20.39;61.23
22069;DHT22;13887;57.196;-2.100;2023-06-14T15:35:54;20.39;61.31
22069;DHT22;13887;57.196;-2.100;2023-06-14T15:38:21;20.39;58.95